sensor_id;sensor_type;location;lat;lon;timestamp;temperature;humidity
14101;DHT22;7127;49.372;8.166;2023-10-13T00:00:56;22.50;54.60
14101;DHT22;7127;49.372;8.166;2023-10-13T00:03:24;22.50;54.70
14101;DHT22;7127;49.372;8.166;2023-10-13T00:05:58;22.50;54.70
14101;DHT22;7127;49.372;8.166;2023-10-13T00:08:28;22.40;54.80
14101;DHT22;7127;49.372;8.166;2023-10-13T00:10:55;22.40;54.80
14101;DHT22;7127;49.372;8.166;2023-10-13T00:13:26;22.40;54.90
14101;DHT22;7127;49.372;8.166;2023-10-13T00:15:53;22.40;55.00
14101;DHT22;7127;49.372;8.166;2023-10-13T00:18:24;22.30;55.00
14101;DHT22;7127;49.372;8.166;2023-10-13T00:20:52;22.30;55.00
14101;DHT22;7127;49.372;8.166;2023-10-13T00:23:23;22.30;55.00
14101;DHT22;7127;49.372;8.166;2023-10-13T00:25:53;22.30;55.10
14101;DHT22;7127;49.372;8.166;2023-10-13T00:28:28;22.20;55.10
14101;DHT22;7127;49.372;8.166;2023-10-13T00:31:08;22.20;55.20
14101;DHT22;7127;49.372;8.166;2023-10-13T00:33:37;22.20;55.30
14101;DHT22;7127;49.372;8.166;2023-10-13T00:36:04;22.10;55.30
14101;DHT22;7127;49.372;8.166;2023-10-13T00:38:34;22.10;55.30
14101;DHT22;7127;49.372;8.166;2023-10-13T00:41:02;22.10;55.40
14101;DHT22;7127;49.372;8.166;2023-10-13T00:43:44;22.10;55.30
14101;DHT22;7127;49.372;8.166;2023-10-13T00:46:13;22.10;55.50
14101;DHT22;7127;49.372;8.166;2023-10-13T00:48:44;22.10;55.50
14101;DHT22;7127;49.372;8.166;2023-10-13T00:51:17;22.00;55.40
14101;DHT22;7127;49.372;8.166;2023-10-13T00:53:49;22.00;55.50
14101;DHT22;7127;49.372;8.166;2023-10-13T00:56:16;22.00;55.70
14101;DHT22;7127;49.372;8.166;2023-10-13T00:58:47;22.00;55.80
14101;DHT22;7127;49.372;8.166;2023-10-13T01:01:15;22.00;55.80
14101;DHT22;7127;49.372;8.166;2023-10-13T01:03:48;22.00;55.90
14101;DHT22;7127;49.372;8.166;2023-10-13T01:06:16;22.00;55.90
14101;DHT22;7127;49.372;8.166;2023-10-13T01:08:45;22.00;56.00
14101;DHT22;7127;49.372;8.166;2023-10-13T01:11:18;22.00;56.00
14101;DHT22;7127;49.372;8.166;2023-10-13T01:13:44;21.90;55.90
14101;DHT22;7127;49.372;8.166;2023-10-13T01:16:16;21.90;55.90
14101;DHT22;7127;49.372;8.166;2023-10-13T01:18:42;21.90;55.90
14101;DHT22;7127;49.372;8.166;2023-10-13T01:21:15;21.90;56.00
14101;DHT22;7127;49.372;8.166;2023-10-13T01:23:44;21.90;56.00
14101;DHT22;7127;49.372;8.166;2023-10-13T01:26:12;21.90;56.00
14101;DHT22;7127;49.372;8.166;2023-10-13T01:28:41;21.90;56.10
14101;DHT22;7127;49.372;8.166;2023-10-13T01:31:14;21.80;56.10
14101;DHT22;7127;49.372;8.166;2023-10-13T01:33:50;21.80;56.00
14101;DHT22;7127;49.372;8.166;2023-10-13T01:36:22;21.80;56.70
14101;DHT22;7127;49.372;8.166;2023-10-13T01:38:50;21.70;56.10
14101;DHT22;7127;49.372;8.166;2023-10-13T01:41:18;21.70;56.10
14101;DHT22;7127;49.372;8.166;2023-10-13T01:43:43;21.70;56.20
14101;DHT22;7127;49.372;8.166;2023-10-13T01:46:10;21.60;56.20
14101;DHT22;7127;49.372;8.166;2023-10-13T01:48:39;21.60;56.90
14101;DHT22;7127;49.372;8.166;2023-10-13T01:51:06;21.60;56.30
14101;DHT22;7127;49.372;8.166;2023-10-13T01:53:36;21.50;56.20
14101;DHT22;7127;49.372;8.166;2023-10-13T01:56:05;21.50;56.40
14101;DHT22;7127;49.372;8.166;2023-10-13T01:58:36;21.40;56.50
14101;DHT22;7127;49.372;8.166;2023-10-13T02:01:06;21.40;56.60
14101;DHT22;7127;49.372;8.166;2023-10-13T02:03:33;21.30;56.50
14101;DHT22;7127;49.372;8.166;2023-10-13T02:06:02;21.30;56.70
14101;DHT22;7127;49.372;8.166;2023-10-13T02:08:30;21.30;56.80
14101;DHT22;7127;49.372;8.166;2023-10-13T02:10:57;21.30;56.80
14101;DHT22;7127;49.372;8.166;2023-10-13T02:13:26;21.20;56.80
14101;DHT22;7127;49.372;8.166;2023-10-13T02:15:55;21.20;56.90
14101;DHT22;7127;49.372;8.166;2023-10-13T02:18:22;21.20;57.00
14101;DHT22;7127;49.372;8.166;2023-10-13T02:20:52;21.30;57.10
14101;DHT22;7127;49.372;8.166;2023-10-13T02:23:21;21.10;57.00
14101;DHT22;7127;49.372;8.166;2023-10-13T02:25:48;21.10;57.10
14101;DHT22;7127;49.372;8.166;2023-10-13T02:28:18;21.10;57.00
14101;DHT22;7127;49.372;8.166;2023-10-13T02:30:55;21.20;57.10
14101;DHT22;7127;49.372;8.166;2023-10-13T02:33:23;21.10;57.10
14101;DHT22;7127;49.372;8.166;2023-10-13T02:35:56;21.10;57.10
14101;DHT22;7127;49.372;8.166;2023-10-13T02:38:23;21.10;57.00
14101;DHT22;7127;49.372;8.166;2023-10-13T02:40:59;21.00;56.90
14101;DHT22;7127;49.372;8.166;2023-10-13T02:43:34;21.00;56.90
14101;DHT22;7127;49.372;8.166;2023-10-13T02:46:02;21.00;56.90
14101;DHT22;7127;49.372;8.166;2023-10-13T02:48:30;20.90;56.80
14101;DHT22;7127;49.372;8.166;2023-10-13T02:51:04;20.90;56.80
14101;DHT22;7127;49.372;8.166;2023-10-13T02:53:41;20.90;56.90
14101;DHT22;7127;49.372;8.166;2023-10-13T02:56:07;20.80;56.90
14101;DHT22;7127;49.372;8.166;2023-10-13T02:58:34;20.80;56.90
14101;DHT22;7127;49.372;8.166;2023-10-13T03:01:11;20.80;57.10
14101;DHT22;7127;49.372;8.166;2023-10-13T03:03:49;20.70;57.10
14101;DHT22;7127;49.372;8.166;2023-10-13T03:06:17;20.70;57.20
14101;DHT22;7127;49.372;8.166;2023-10-13T03:08:48;20.70;57.20
14101;DHT22;7127;49.372;8.166;2023-10-13T03:11:13;20.70;57.30
14101;DHT22;7127;49.372;8.166;2023-10-13T03:13:47;20.70;57.30
14101;DHT22;7127;49.372;8.166;2023-10-13T03:16:18;20.70;57.30
14101;DHT22;7127;49.372;8.166;2023-10-13T03:18:46;20.70;57.50
14101;DHT22;7127;49.372;8.166;2023-10-13T03:21:22;20.60;57.40
14101;DHT22;7127;49.372;8.166;2023-10-13T03:23:58;20.60;57.40
14101;DHT22;7127;49.372;8.166;2023-10-13T03:26:33;20.60;57.50
14101;DHT22;7127;49.372;8.166;2023-10-13T03:29:01;20.60;57.50
14101;DHT22;7127;49.372;8.166;2023-10-13T03:31:34;20.60;57.60
14101;DHT22;7127;49.372;8.166;2023-10-13T03:34:05;20.60;57.50
14101;DHT22;7127;49.372;8.166;2023-10-13T03:36:35;20.60;57.60
14101;DHT22;7127;49.372;8.166;2023-10-13T03:39:16;20.50;57.60
14101;DHT22;7127;49.372;8.166;2023-10-13T03:41:43;20.50;57.60
14101;DHT22;7127;49.372;8.166;2023-10-13T03:44:10;20.50;57.60
14101;DHT22;7127;49.372;8.166;2023-10-13T03:46:44;20.50;57.60
14101;DHT22;7127;49.372;8.166;2023-10-13T03:49:14;20.50;57.80
14101;DHT22;7127;49.372;8.166;2023-10-13T03:51:46;20.50;57.70
14101;DHT22;7127;49.372;8.166;2023-10-13T03:54:14;20.50;57.70
14101;DHT22;7127;49.372;8.166;2023-10-13T03:56:42;20.40;57.70
14101;DHT22;7127;49.372;8.166;2023-10-13T03:59:11;20.50;57.90
14101;DHT22;7127;49.372;8.166;2023-10-13T04:01:46;20.40;57.90
14101;DHT22;7127;49.372;8.166;2023-10-13T04:04:23;20.60;58.10
14101;DHT22;7127;49.372;8.166;2023-10-13T04:07:00;20.50;58.00
14101;DHT22;7127;49.372;8.166;2023-10-13T04:09:52;20.40;58.00
14101;DHT22;7127;49.372;8.166;2023-10-13T04:13:05;20.40;58.00
14101;DHT22;7127;49.372;8.166;2023-10-13T04:15:54;20.40;57.90
14101;DHT22;7127;49.372;8.166;2023-10-13T04:18:50;20.40;57.90
14101;DHT22;7127;49.372;8.166;2023-10-13T04:21:33;20.40;57.80
14101;DHT22;7127;49.372;8.166;2023-10-13T04:24:08;20.30;57.80
14101;DHT22;7127;49.372;8.166;2023-10-13T04:26:49;20.30;57.60
14101;DHT22;7127;49.372;8.166;2023-10-13T04:29:44;20.20;57.60
14101;DHT22;7127;49.372;8.166;2023-10-13T04:32:18;20.20;57.60
14101;DHT22;7127;49.372;8.166;2023-10-13T04:34:57;20.20;57.70
14101;DHT22;7127;49.372;8.166;2023-10-13T04:37:34;20.20;57.90
14101;DHT22;7127;49.372;8.166;2023-10-13T04:40:15;20.10;57.80
14101;DHT22;7127;49.372;8.166;2023-10-13T04:42:43;20.00;57.90
14101;DHT22;7127;49.372;8.166;2023-10-13T04:45:19;20.00;57.80
14101;DHT22;7127;49.372;8.166;2023-10-13T04:48:04;20.00;57.90
14101;DHT22;7127;49.372;8.166;2023-10-13T04:50:46;20.10;58.00
14101;DHT22;7127;49.372;8.166;2023-10-13T04:53:13;20.10;58.20
14101;DHT22;7127;49.372;8.166;2023-10-13T04:55:54;20.00;58.20
14101;DHT22;7127;49.372;8.166;2023-10-13T04:58:53;20.00;58.10
14101;DHT22;7127;49.372;8.166;2023-10-13T05:01:38;20.00;58.10
14101;DHT22;7127;49.372;8.166;2023-10-13T05:04:47;20.00;58.00
14101;DHT22;7127;49.372;8.166;2023-10-13T05:07:32;20.00;58.10
14101;DHT22;7127;49.372;8.166;2023-10-13T05:10:17;20.00;58.00
14101;DHT22;7127;49.372;8.166;2023-10-13T05:13:01;19.90;57.80
14101;DHT22;7127;49.372;8.166;2023-10-13T05:15:47;19.90;57.90
14101;DHT22;7127;49.372;8.166;2023-10-13T05:18:32;19.90;58.00
14101;DHT22;7127;49.372;8.166;2023-10-13T05:21:16;19.90;58.20
14101;DHT22;7127;49.372;8.166;2023-10-13T05:24:02;19.90;58.10
14101;DHT22;7127;49.372;8.166;2023-10-13T05:26:46;19.80;58.10
14101;DHT22;7127;49.372;8.166;2023-10-13T05:29:30;19.80;58.20
14101;DHT22;7127;49.372;8.166;2023-10-13T05:32:26;19.80;58.20
14101;DHT22;7127;49.372;8.166;2023-10-13T05:35:11;19.70;58.20
14101;DHT22;7127;49.372;8.166;2023-10-13T05:37:55;19.70;58.30
14101;DHT22;7127;49.372;8.166;2023-10-13T05:40:51;19.70;58.30
14101;DHT22;7127;49.372;8.166;2023-10-13T05:43:36;19.70;58.70
14101;DHT22;7127;49.372;8.166;2023-10-13T05:46:20;19.60;58.40
14101;DHT22;7127;49.372;8.166;2023-10-13T05:49:02;19.60;58.50
14101;DHT22;7127;49.372;8.166;2023-10-13T05:52:06;19.50;58.30
14101;DHT22;7127;49.372;8.166;2023-10-13T05:55:05;19.60;58.50
14101;DHT22;7127;49.372;8.166;2023-10-13T05:57:51;19.50;58.40
14101;DHT22;7127;49.372;8.166;2023-10-13T06:00:39;19.50;58.40
14101;DHT22;7127;49.372;8.166;2023-10-13T06:03:24;19.50;58.50
14101;DHT22;7127;49.372;8.166;2023-10-13T06:06:08;19.50;58.50
14101;DHT22;7127;49.372;8.166;2023-10-13T06:08:53;19.50;58.50
14101;DHT22;7127;49.372;8.166;2023-10-13T06:11:37;19.40;58.50
14101;DHT22;7127;49.372;8.166;2023-10-13T06:14:22;19.40;58.60
14101;DHT22;7127;49.372;8.166;2023-10-13T06:17:06;19.40;58.60
14101;DHT22;7127;49.372;8.166;2023-10-13T06:19:50;19.40;58.80
14101;DHT22;7127;49.372;8.166;2023-10-13T06:22:34;19.50;58.80
14101;DHT22;7127;49.372;8.166;2023-10-13T06:25:19;19.50;58.70
14101;DHT22;7127;49.372;8.166;2023-10-13T06:28:03;19.50;58.60
14101;DHT22;7127;49.372;8.166;2023-10-13T06:30:57;19.40;58.50
14101;DHT22;7127;49.372;8.166;2023-10-13T06:33:24;19.40;58.70
14101;DHT22;7127;49.372;8.166;2023-10-13T06:35:55;19.40;58.50
14101;DHT22;7127;49.372;8.166;2023-10-13T06:38:22;19.30;58.60
14101;DHT22;7127;49.372;8.166;2023-10-13T06:40:49;19.40;58.80
14101;DHT22;7127;49.372;8.166;2023-10-13T06:43:18;19.40;58.80
14101;DHT22;7127;49.372;8.166;2023-10-13T06:45:48;19.40;58.90
14101;DHT22;7127;49.372;8.166;2023-10-13T06:48:24;19.40;58.90
14101;DHT22;7127;49.372;8.166;2023-10-13T06:50:51;19.50;59.00
14101;DHT22;7127;49.372;8.166;2023-10-13T06:53:18;19.50;59.00
14101;DHT22;7127;49.372;8.166;2023-10-13T06:55:45;19.60;59.10
14101;DHT22;7127;49.372;8.166;2023-10-13T06:58:15;19.60;59.10
14101;DHT22;7127;49.372;8.166;2023-10-13T07:00:43;19.60;59.10
14101;DHT22;7127;49.372;8.166;2023-10-13T07:03:18;19.70;59.10
14101;DHT22;7127;49.372;8.166;2023-10-13T07:05:46;19.70;59.10
14101;DHT22;7127;49.372;8.166;2023-10-13T07:08:15;19.80;59.20
14101;DHT22;7127;49.372;8.166;2023-10-13T07:10:49;19.80;59.20
14101;DHT22;7127;49.372;8.166;2023-10-13T07:13:17;19.90;59.30
14101;DHT22;7127;49.372;8.166;2023-10-13T07:15:45;19.90;59.20
14101;DHT22;7127;49.372;8.166;2023-10-13T07:18:12;20.00;59.20
14101;DHT22;7127;49.372;8.166;2023-10-13T07:20:41;20.00;59.10
14101;DHT22;7127;49.372;8.166;2023-10-13T07:23:12;20.10;59.20
14101;DHT22;7127;49.372;8.166;2023-10-13T07:25:51;20.10;59.10
14101;DHT22;7127;49.372;8.166;2023-10-13T07:28:19;20.20;59.20
14101;DHT22;7127;49.372;8.166;2023-10-13T07:30:46;20.30;59.20
14101;DHT22;7127;49.372;8.166;2023-10-13T07:33:36;20.30;59.20
14101;DHT22;7127;49.372;8.166;2023-10-13T07:36:04;20.40;59.20
14101;DHT22;7127;49.372;8.166;2023-10-13T07:38:38;20.50;59.30
14101;DHT22;7127;49.372;8.166;2023-10-13T07:41:08;20.60;59.30
14101;DHT22;7127;49.372;8.166;2023-10-13T07:43:43;20.70;59.30
14101;DHT22;7127;49.372;8.166;2023-10-13T07:46:11;20.70;59.30
14101;DHT22;7127;49.372;8.166;2023-10-13T07:48:38;20.80;59.30
14101;DHT22;7127;49.372;8.166;2023-10-13T07:51:08;20.90;59.30
14101;DHT22;7127;49.372;8.166;2023-10-13T07:53:39;21.00;59.20
14101;DHT22;7127;49.372;8.166;2023-10-13T07:56:07;21.10;59.10
14101;DHT22;7127;49.372;8.166;2023-10-13T07:58:37;21.30;59.10
14101;DHT22;7127;49.372;8.166;2023-10-13T08:01:13;21.40;59.00
14101;DHT22;7127;49.372;8.166;2023-10-13T08:03:44;21.50;59.00
14101;DHT22;7127;49.372;8.166;2023-10-13T08:06:12;21.60;58.80
14101;DHT22;7127;49.372;8.166;2023-10-13T08:08:55;21.70;58.70
14101;DHT22;7127;49.372;8.166;2023-10-13T08:11:33;21.80;58.60
14101;DHT22;7127;49.372;8.166;2023-10-13T08:14:03;21.90;58.60
14101;DHT22;7127;49.372;8.166;2023-10-13T08:16:47;22.10;58.60
14101;DHT22;7127;49.372;8.166;2023-10-13T08:19:21;22.20;58.60
14101;DHT22;7127;49.372;8.166;2023-10-13T08:21:53;22.30;58.50
14101;DHT22;7127;49.372;8.166;2023-10-13T08:24:24;22.40;58.50
14101;DHT22;7127;49.372;8.166;2023-10-13T08:26:55;22.60;58.40
14101;DHT22;7127;49.372;8.166;2023-10-13T08:29:40;22.60;58.20
14101;DHT22;7127;49.372;8.166;2023-10-13T08:32:40;22.90;58.30
14101;DHT22;7127;49.372;8.166;2023-10-13T08:35:20;22.90;58.20
14101;DHT22;7127;49.372;8.166;2023-10-13T08:38:04;23.10;58.10
14101;DHT22;7127;49.372;8.166;2023-10-13T08:40:44;23.20;57.90
14101;DHT22;7127;49.372;8.166;2023-10-13T08:43:38;23.40;57.70
14101;DHT22;7127;49.372;8.166;2023-10-13T08:46:11;23.50;57.80
14101;DHT22;7127;49.372;8.166;2023-10-13T08:48:53;23.60;57.50
14101;DHT22;7127;49.372;8.166;2023-10-13T08:51:33;23.80;57.40
14101;DHT22;7127;49.372;8.166;2023-10-13T08:54:11;23.90;57.30
14101;DHT22;7127;49.372;8.166;2023-10-13T08:56:47;24.10;57.20
14101;DHT22;7127;49.372;8.166;2023-10-13T08:59:21;24.20;57.00
14101;DHT22;7127;49.372;8.166;2023-10-13T09:02:11;24.30;56.80
14101;DHT22;7127;49.372;8.166;2023-10-13T09:04:43;24.50;56.40
14101;DHT22;7127;49.372;8.166;2023-10-13T09:07:10;24.60;56.40
14101;DHT22;7127;49.372;8.166;2023-10-13T09:09:46;24.70;56.20
14101;DHT22;7127;49.372;8.166;2023-10-13T09:12:32;24.80;55.80
14101;DHT22;7127;49.372;8.166;2023-10-13T09:15:29;24.90;55.90
14101;DHT22;7127;49.372;8.166;2023-10-13T09:18:25;25.00;55.70
14101;DHT22;7127;49.372;8.166;2023-10-13T09:21:10;25.10;55.70
14101;DHT22;7127;49.372;8.166;2023-10-13T09:23:55;25.10;55.40
14101;DHT22;7127;49.372;8.166;2023-10-13T09:26:43;25.20;55.20
14101;DHT22;7127;49.372;8.166;2023-10-13T09:29:18;25.30;54.90
14101;DHT22;7127;49.372;8.166;2023-10-13T09:31:45;25.40;54.60
14101;DHT22;7127;49.372;8.166;2023-10-13T09:34:20;25.40;54.40
14101;DHT22;7127;49.372;8.166;2023-10-13T09:36:47;25.40;53.90
14101;DHT22;7127;49.372;8.166;2023-10-13T09:39:23;25.40;54.00
14101;DHT22;7127;49.372;8.166;2023-10-13T09:41:55;25.40;53.90
14101;DHT22;7127;49.372;8.166;2023-10-13T09:44:24;25.50;53.90
14101;DHT22;7127;49.372;8.166;2023-10-13T09:46:52;25.50;53.70
14101;DHT22;7127;49.372;8.166;2023-10-13T09:49:22;25.50;54.00
14101;DHT22;7127;49.372;8.166;2023-10-13T09:52:12;25.50;53.80
14101;DHT22;7127;49.372;8.166;2023-10-13T09:54:51;25.50;53.80
14101;DHT22;7127;49.372;8.166;2023-10-13T09:57:28;25.60;53.70
14101;DHT22;7127;49.372;8.166;2023-10-13T10:00:08;25.60;53.80
14101;DHT22;7127;49.372;8.166;2023-10-13T10:02:53;25.70;53.40
14101;DHT22;7127;49.372;8.166;2023-10-13T10:05:24;25.70;53.50
14101;DHT22;7127;49.372;8.166;2023-10-13T10:07:55;25.80;53.30
14101;DHT22;7127;49.372;8.166;2023-10-13T10:10:27;25.80;52.50
14101;DHT22;7127;49.372;8.166;2023-10-13T10:13:07;25.90;52.50
14101;DHT22;7127;49.372;8.166;2023-10-13T10:15:46;26.00;52.00
14101;DHT22;7127;49.372;8.166;2023-10-13T10:18:18;26.10;51.90
14101;DHT22;7127;49.372;8.166;2023-10-13T10:20:48;26.10;51.40
14101;DHT22;7127;49.372;8.166;2023-10-13T10:23:24;26.20;51.50
14101;DHT22;7127;49.372;8.166;2023-10-13T10:25:53;26.30;50.70
14101;DHT22;7127;49.372;8.166;2023-10-13T10:28:35;26.30;50.70
14101;DHT22;7127;49.372;8.166;2023-10-13T10:31:06;26.40;50.30
14101;DHT22;7127;49.372;8.166;2023-10-13T10:33:35;26.50;50.10
14101;DHT22;7127;49.372;8.166;2023-10-13T10:36:02;26.50;50.10
14101;DHT22;7127;49.372;8.166;2023-10-13T10:38:30;26.60;50.00
14101;DHT22;7127;49.372;8.166;2023-10-13T10:41:01;26.60;49.70
14101;DHT22;7127;49.372;8.166;2023-10-13T10:43:37;26.80;49.60
14101;DHT22;7127;49.372;8.166;2023-10-13T10:46:14;26.70;49.40
14101;DHT22;7127;49.372;8.166;2023-10-13T10:48:41;26.80;49.20
14101;DHT22;7127;49.372;8.166;2023-10-13T10:51:09;26.80;49.20
14101;DHT22;7127;49.372;8.166;2023-10-13T10:53:47;26.80;49.00
14101;DHT22;7127;49.372;8.166;2023-10-13T10:56:15;26.90;48.70
14101;DHT22;7127;49.372;8.166;2023-10-13T10:59:03;26.90;48.50
14101;DHT22;7127;49.372;8.166;2023-10-13T11:01:32;26.90;48.30
14101;DHT22;7127;49.372;8.166;2023-10-13T11:04:09;27.00;48.10
14101;DHT22;7127;49.372;8.166;2023-10-13T11:06:45;27.00;48.20
14101;DHT22;7127;49.372;8.166;2023-10-13T11:09:13;27.00;47.90
14101;DHT22;7127;49.372;8.166;2023-10-13T11:12:02;27.00;48.00
14101;DHT22;7127;49.372;8.166;2023-10-13T11:14:40;27.00;47.50
14101;DHT22;7127;49.372;8.166;2023-10-13T11:17:09;27.10;47.50
14101;DHT22;7127;49.372;8.166;2023-10-13T11:19:46;27.10;47.50
14101;DHT22;7127;49.372;8.166;2023-10-13T11:22:14;27.10;47.50
14101;DHT22;7127;49.372;8.166;2023-10-13T11:25:23;27.10;47.30
14101;DHT22;7127;49.372;8.166;2023-10-13T11:27:55;27.20;47.10
14101;DHT22;7127;49.372;8.166;2023-10-13T11:30:24;27.20;47.20
14101;DHT22;7127;49.372;8.166;2023-10-13T11:32:59;27.30;46.80
14101;DHT22;7127;49.372;8.166;2023-10-13T11:35:26;27.30;46.70
14101;DHT22;7127;49.372;8.166;2023-10-13T11:38:14;27.30;46.80
14101;DHT22;7127;49.372;8.166;2023-10-13T11:40:52;27.40;46.70
14101;DHT22;7127;49.372;8.166;2023-10-13T11:43:38;27.40;46.70
14101;DHT22;7127;49.372;8.166;2023-10-13T11:46:19;27.50;46.50
14101;DHT22;7127;49.372;8.166;2023-10-13T11:49:00;27.60;46.40
14101;DHT22;7127;49.372;8.166;2023-10-13T11:51:43;27.50;46.20
14101;DHT22;7127;49.372;8.166;2023-10-13T11:54:11;27.60;46.00
14101;DHT22;7127;49.372;8.166;2023-10-13T11:56:39;27.60;45.90
14101;DHT22;7127;49.372;8.166;2023-10-13T11:59:06;27.70;45.90
14101;DHT22;7127;49.372;8.166;2023-10-13T12:01:42;27.70;45.80
14101;DHT22;7127;49.372;8.166;2023-10-13T12:04:26;27.70;45.70
14101;DHT22;7127;49.372;8.166;2023-10-13T12:07:06;27.80;45.60
14101;DHT22;7127;49.372;8.166;2023-10-13T12:09:43;27.80;45.60
14101;DHT22;7127;49.372;8.166;2023-10-13T12:12:30;27.80;45.50
14101;DHT22;7127;49.372;8.166;2023-10-13T12:14:59;27.90;45.40
14101;DHT22;7127;49.372;8.166;2023-10-13T12:17:34;27.90;45.30
14101;DHT22;7127;49.372;8.166;2023-10-13T12:20:02;27.90;45.00
14101;DHT22;7127;49.372;8.166;2023-10-13T12:22:30;28.00;44.80
14101;DHT22;7127;49.372;8.166;2023-10-13T12:25:04;27.90;44.60
14101;DHT22;7127;49.372;8.166;2023-10-13T12:27:45;28.00;44.60
14101;DHT22;7127;49.372;8.166;2023-10-13T12:30:14;28.00;44.40
14101;DHT22;7127;49.372;8.166;2023-10-13T12:32:48;28.10;44.10
14101;DHT22;7127;49.372;8.166;2023-10-13T12:35:31;28.10;44.20
14101;DHT22;7127;49.372;8.166;2023-10-13T12:38:10;28.10;44.10
14101;DHT22;7127;49.372;8.166;2023-10-13T12:41:04;28.10;44.10
14101;DHT22;7127;49.372;8.166;2023-10-13T12:43:50;28.20;43.60
14101;DHT22;7127;49.372;8.166;2023-10-13T12:46:34;28.20;43.20
14101;DHT22;7127;49.372;8.166;2023-10-13T12:49:15;28.20;43.00
14101;DHT22;7127;49.372;8.166;2023-10-13T12:52:02;28.20;42.90
14101;DHT22;7127;49.372;8.166;2023-10-13T12:54:29;28.20;42.80
14101;DHT22;7127;49.372;8.166;2023-10-13T12:57:00;28.20;42.50
14101;DHT22;7127;49.372;8.166;2023-10-13T12:59:29;28.30;42.50
14101;DHT22;7127;49.372;8.166;2023-10-13T13:01:56;28.40;42.10
14101;DHT22;7127;49.372;8.166;2023-10-13T13:04:25;28.30;42.10
14101;DHT22;7127;49.372;8.166;2023-10-13T13:06:57;28.30;42.20
14101;DHT22;7127;49.372;8.166;2023-10-13T13:09:24;28.30;42.20
14101;DHT22;7127;49.372;8.166;2023-10-13T13:11:52;28.50;42.30
14101;DHT22;7127;49.372;8.166;2023-10-13T13:14:22;28.40;42.30
14101;DHT22;7127;49.372;8.166;2023-10-13T13:16:55;28.40;42.00
14101;DHT22;7127;49.372;8.166;2023-10-13T13:19:30;28.40;41.90
14101;DHT22;7127;49.372;8.166;2023-10-13T13:21:59;28.40;41.90
14101;DHT22;7127;49.372;8.166;2023-10-13T13:24:26;28.40;41.70
14101;DHT22;7127;49.372;8.166;2023-10-13T13:26:55;28.50;41.60
14101;DHT22;7127;49.372;8.166;2023-10-13T13:29:28;28.60;41.60
14101;DHT22;7127;49.372;8.166;2023-10-13T13:31:56;28.50;41.30
14101;DHT22;7127;49.372;8.166;2023-10-13T13:34:23;28.60;41.30
14101;DHT22;7127;49.372;8.166;2023-10-13T13:36:51;28.60;41.40
14101;DHT22;7127;49.372;8.166;2023-10-13T13:39:19;28.60;41.50
14101;DHT22;7127;49.372;8.166;2023-10-13T13:45:11;28.60;41.00
14101;DHT22;7127;49.372;8.166;2023-10-13T13:47:39;28.60;41.10
14101;DHT22;7127;49.372;8.166;2023-10-13T13:50:06;28.60;41.00
14101;DHT22;7127;49.372;8.166;2023-10-13T13:52:40;28.60;41.00
14101;DHT22;7127;49.372;8.166;2023-10-13T13:55:11;28.60;41.00
14101;DHT22;7127;49.372;8.166;2023-10-13T13:57:42;28.60;40.90
14101;DHT22;7127;49.372;8.166;2023-10-13T14:00:10;28.60;40.80
14101;DHT22;7127;49.372;8.166;2023-10-13T14:02:44;28.70;40.90
14101;DHT22;7127;49.372;8.166;2023-10-13T14:05:13;28.70;40.70
14101;DHT22;7127;49.372;8.166;2023-10-13T14:07:42;28.70;40.60
14101;DHT22;7127;49.372;8.166;2023-10-13T14:10:14;28.70;40.50
14101;DHT22;7127;49.372;8.166;2023-10-13T14:12:57;28.70;40.40
14101;DHT22;7127;49.372;8.166;2023-10-13T14:15:32;28.70;40.40
14101;DHT22;7127;49.372;8.166;2023-10-13T14:18:06;28.70;40.40
14101;DHT22;7127;49.372;8.166;2023-10-13T14:20:38;28.70;40.40
14101;DHT22;7127;49.372;8.166;2023-10-13T14:23:06;28.70;40.30
14101;DHT22;7127;49.372;8.166;2023-10-13T14:25:35;28.70;40.30
14101;DHT22;7127;49.372;8.166;2023-10-13T14:28:04;28.70;40.30
14101;DHT22;7127;49.372;8.166;2023-10-13T14:30:31;28.60;40.10
14101;DHT22;7127;49.372;8.166;2023-10-13T14:32:57;28.60;40.00
14101;DHT22;7127;49.372;8.166;2023-10-13T14:35:26;28.60;39.70
14101;DHT22;7127;49.372;8.166;2023-10-13T14:37:52;28.60;39.40
14101;DHT22;7127;49.372;8.166;2023-10-13T14:40:19;28.60;39.10
14101;DHT22;7127;49.372;8.166;2023-10-13T14:42:47;28.50;38.90
14101;DHT22;7127;49.372;8.166;2023-10-13T14:45:14;28.50;38.80
14101;DHT22;7127;49.372;8.166;2023-10-13T14:47:42;28.50;38.70
14101;DHT22;7127;49.372;8.166;2023-10-13T14:50:10;28.50;38.60
14101;DHT22;7127;49.372;8.166;2023-10-13T14:52:44;28.50;38.40
14101;DHT22;7127;49.372;8.166;2023-10-13T14:55:11;28.50;38.10
14101;DHT22;7127;49.372;8.166;2023-10-13T14:57:44;28.50;38.20
14101;DHT22;7127;49.372;8.166;2023-10-13T15:00:13;28.50;38.10
14101;DHT22;7127;49.372;8.166;2023-10-13T15:02:40;28.50;38.00
14101;DHT22;7127;49.372;8.166;2023-10-13T15:05:09;28.40;37.90
14101;DHT22;7127;49.372;8.166;2023-10-13T15:07:43;28.50;38.20
14101;DHT22;7127;49.372;8.166;2023-10-13T15:10:12;28.40;38.20
14101;DHT22;7127;49.372;8.166;2023-10-13T15:12:41;28.40;38.30
14101;DHT22;7127;49.372;8.166;2023-10-13T15:15:08;28.30;38.40
14101;DHT22;7127;49.372;8.166;2023-10-13T15:17:39;28.30;38.50
14101;DHT22;7127;49.372;8.166;2023-10-13T15:20:06;28.30;38.60
14101;DHT22;7127;49.372;8.166;2023-10-13T15:22:35;28.40;38.80
14101;DHT22;7127;49.372;8.166;2023-10-13T15:25:05;28.30;38.70
14101;DHT22;7127;49.372;8.166;2023-10-13T15:27:43;28.30;38.70
14101;DHT22;7127;49.372;8.166;2023-10-13T15:30:15;28.30;38.80
14101;DHT22;7127;49.372;8.166;2023-10-13T15:32:51;28.30;38.80
14101;DHT22;7127;49.372;8.166;2023-10-13T15:35:19;28.20;38.70
14101;DHT22;7127;49.372;8.166;2023-10-13T15:37:49;28.20;38.80
14101;DHT22;7127;49.372;8.166;2023-10-13T15:40:18;28.20;38.70
14101;DHT22;7127;49.372;8.166;2023-10-13T15:42:45;28.10;38.70
14101;DHT22;7127;49.372;8.166;2023-10-13T15:45:12;28.10;38.80
14101;DHT22;7127;49.372;8.166;2023-10-13T15:47:47;28.10;38.80
14101;DHT22;7127;49.372;8.166;2023-10-13T15:50:15;28.00;38.80
14101;DHT22;7127;49.372;8.166;2023-10-13T15:52:45;28.00;38.80
14101;DHT22;7127;49.372;8.166;2023-10-13T15:55:13;28.00;38.90
14101;DHT22;7127;49.372;8.166;2023-10-13T15:57:41;28.00;38.90
14101;DHT22;7127;49.372;8.166;2023-10-13T16:00:10;27.90;38.90
14101;DHT22;7127;49.372;8.166;2023-10-13T16:02:50;27.90;39.00
14101;DHT22;7127;49.372;8.166;2023-10-13T16:05:18;27.80;39.10
14101;DHT22;7127;49.372;8.166;2023-10-13T16:07:48;27.80;39.10
14101;DHT22;7127;49.372;8.166;2023-10-13T16:10:16;27.80;39.10
14101;DHT22;7127;49.372;8.166;2023-10-13T16:12:44;27.60;38.90
14101;DHT22;7127;49.372;8.166;2023-10-13T16:15:11;27.60;38.90
14101;DHT22;7127;49.372;8.166;2023-10-13T16:17:40;27.60;39.00
14101;DHT22;7127;49.372;8.166;2023-10-13T16:20:07;27.50;38.90
14101;DHT22;7127;49.372;8.166;2023-10-13T16:22:42;27.40;38.80
14101;DHT22;7127;49.372;8.166;2023-10-13T16:25:09;27.40;38.80
14101;DHT22;7127;49.372;8.166;2023-10-13T16:27:38;27.30;38.80
14101;DHT22;7127;49.372;8.166;2023-10-13T16:30:10;27.20;38.70
14101;DHT22;7127;49.372;8.166;2023-10-13T16:32:41;27.20;38.70